sensor_id;sensor_type;location;lat;lon;timestamp;temperature;humidity
5930;DHT22;2990;48.746;9.236;2023-11-21T00:00:04;6.80;99.90
5930;DHT22;2990;48.746;9.236;2023-11-21T00:02:35;6.80;99.90
5930;DHT22;2990;48.746;9.236;2023-11-21T00:05:02;6.80;99.90
5930;DHT22;2990;48.746;9.236;2023-11-21T00:07:28;6.80;99.90
5930;DHT22;2990;48.746;9.236;2023-11-21T00:09:54;6.80;99.90
5930;DHT22;2990;48.746;9.236;2023-11-21T00:12:21;6.80;99.90
5930;DHT22;2990;48.746;9.236;2023-11-21T00:14:47;6.80;99.90
5930;DHT22;2990;48.746;9.236;2023-11-21T00:17:12;6.80;99.90
5930;DHT22;2990;48.746;9.236;2023-11-21T00:19:38;6.70;99.90
5930;DHT22;2990;48.746;9.236;2023-11-21T00:22:03;6.80;99.90
5930;DHT22;2990;48.746;9.236;2023-11-21T00:24:29;6.70;99.90
5930;DHT22;2990;48.746;9.236;2023-11-21T00:26:54;6.80;99.90
5930;DHT22;2990;48.746;9.236;2023-11-21T00:29:20;6.80;99.90
5930;DHT22;2990;48.746;9.236;2023-11-21T00:31:45;6.80;99.90
5930;DHT22;2990;48.746;9.236;2023-11-21T00:34:14;6.80;99.90
5930;DHT22;2990;48.746;9.236;2023-11-21T00:36:40;6.80;99.90
5930;DHT22;2990;48.746;9.236;2023-11-21T00:39:05;6.80;99.90
5930;DHT22;2990;48.746;9.236;2023-11-21T00:41:31;6.90;99.90
5930;DHT22;2990;48.746;9.236;2023-11-21T00:43:57;6.80;99.90
5930;DHT22;2990;48.746;9.236;2023-11-21T00:46:24;6.90;99.90
5930;DHT22;2990;48.746;9.236;2023-11-21T00:48:52;6.90;99.90
5930;DHT22;2990;48.746;9.236;2023-11-21T00:51:19;6.90;99.90
5930;DHT22;2990;48.746;9.236;2023-11-21T00:53:45;6.90;99.90
5930;DHT22;2990;48.746;9.236;2023-11-21T00:56:10;6.90;99.90
5930;DHT22;2990;48.746;9.236;2023-11-21T00:58:36;6.90;99.90
5930;DHT22;2990;48.746;9.236;2023-11-21T01:01:01;6.90;99.90
5930;DHT22;2990;48.746;9.236;2023-11-21T01:03:28;6.90;99.90
5930;DHT22;2990;48.746;9.236;2023-11-21T01:05:54;6.90;99.90
5930;DHT22;2990;48.746;9.236;2023-11-21T01:08:19;6.90;99.90
5930;DHT22;2990;48.746;9.236;2023-11-21T01:10:45;6.90;99.90
5930;DHT22;2990;48.746;9.236;2023-11-21T01:13:11;6.90;99.90
5930;DHT22;2990;48.746;9.236;2023-11-21T01:15:36;6.90;99.90
5930;DHT22;2990;48.746;9.236;2023-11-21T01:18:02;6.90;99.90
5930;DHT22;2990;48.746;9.236;2023-11-21T01:20:29;6.90;99.90
5930;DHT22;2990;48.746;9.236;2023-11-21T01:22:54;6.90;99.90
5930;DHT22;2990;48.746;9.236;2023-11-21T01:25:20;6.90;99.90
5930;DHT22;2990;48.746;9.236;2023-11-21T01:27:46;6.90;99.90
5930;DHT22;2990;48.746;9.236;2023-11-21T01:30:12;6.90;99.90
5930;DHT22;2990;48.746;9.236;2023-11-21T01:32:38;6.90;99.90
5930;DHT22;2990;48.746;9.236;2023-11-21T01:35:05;7.00;99.90
5930;DHT22;2990;48.746;9.236;2023-11-21T01:37:31;6.90;99.90
5930;DHT22;2990;48.746;9.236;2023-11-21T01:39:58;7.00;99.90
5930;DHT22;2990;48.746;9.236;2023-11-21T01:42:24;6.90;99.90
5930;DHT22;2990;48.746;9.236;2023-11-21T01:44:49;6.90;99.90
5930;DHT22;2990;48.746;9.236;2023-11-21T01:47:16;7.00;99.90
5930;DHT22;2990;48.746;9.236;2023-11-21T01:49:45;7.00;99.90
5930;DHT22;2990;48.746;9.236;2023-11-21T01:52:12;7.00;99.90
5930;DHT22;2990;48.746;9.236;2023-11-21T01:54:38;7.00;99.90
5930;DHT22;2990;48.746;9.236;2023-11-21T01:57:05;7.00;99.90
5930;DHT22;2990;48.746;9.236;2023-11-21T01:59:37;7.00;99.90
5930;DHT22;2990;48.746;9.236;2023-11-21T02:02:06;7.00;99.90
5930;DHT22;2990;48.746;9.236;2023-11-21T02:04:33;7.00;99.90
5930;DHT22;2990;48.746;9.236;2023-11-21T02:06:59;7.00;99.90
5930;DHT22;2990;48.746;9.236;2023-11-21T02:09:28;7.00;99.90
5930;DHT22;2990;48.746;9.236;2023-11-21T02:11:55;7.00;99.90
5930;DHT22;2990;48.746;9.236;2023-11-21T02:14:21;7.00;99.90
5930;DHT22;2990;48.746;9.236;2023-11-21T02:16:51;7.00;99.90
5930;DHT22;2990;48.746;9.236;2023-11-21T02:19:21;7.00;99.90
5930;DHT22;2990;48.746;9.236;2023-11-21T02:21:56;7.00;99.90
5930;DHT22;2990;48.746;9.236;2023-11-21T02:24:28;7.00;99.90
5930;DHT22;2990;48.746;9.236;2023-11-21T02:26:53;7.00;99.90
5930;DHT22;2990;48.746;9.236;2023-11-21T02:29:20;7.00;99.90
5930;DHT22;2990;48.746;9.236;2023-11-21T02:31:54;7.00;99.90
5930;DHT22;2990;48.746;9.236;2023-11-21T02:34:20;7.00;99.90
5930;DHT22;2990;48.746;9.236;2023-11-21T02:36:46;7.00;99.90
5930;DHT22;2990;48.746;9.236;2023-11-21T02:39:15;7.00;99.90
5930;DHT22;2990;48.746;9.236;2023-11-21T02:41:42;7.00;99.90
5930;DHT22;2990;48.746;9.236;2023-11-21T02:44:08;7.00;99.90
5930;DHT22;2990;48.746;9.236;2023-11-21T02:46:34;7.00;99.90
5930;DHT22;2990;48.746;9.236;2023-11-21T02:49:01;7.00;99.90
5930;DHT22;2990;48.746;9.236;2023-11-21T02:51:27;7.00;99.90
5930;DHT22;2990;48.746;9.236;2023-11-21T02:53:52;7.00;99.90
5930;DHT22;2990;48.746;9.236;2023-11-21T02:56:18;6.90;99.90
5930;DHT22;2990;48.746;9.236;2023-11-21T02:58:44;6.90;99.90
5930;DHT22;2990;48.746;9.236;2023-11-21T03:01:10;7.00;99.90
5930;DHT22;2990;48.746;9.236;2023-11-21T03:03:39;6.90;99.90
5930;DHT22;2990;48.746;9.236;2023-11-21T03:06:08;6.90;99.90
5930;DHT22;2990;48.746;9.236;2023-11-21T03:08:34;6.90;99.90
5930;DHT22;2990;48.746;9.236;2023-11-21T03:11:00;6.90;99.90
5930;DHT22;2990;48.746;9.236;2023-11-21T03:13:25;6.90;99.90
5930;DHT22;2990;48.746;9.236;2023-11-21T03:15:51;6.80;99.90
5930;DHT22;2990;48.746;9.236;2023-11-21T03:18:16;6.80;99.90
5930;DHT22;2990;48.746;9.236;2023-11-21T03:20:43;6.80;99.90
5930;DHT22;2990;48.746;9.236;2023-11-21T03:23:11;6.80;99.90
5930;DHT22;2990;48.746;9.236;2023-11-21T03:25:37;6.80;99.90
5930;DHT22;2990;48.746;9.236;2023-11-21T03:28:03;6.80;99.90
5930;DHT22;2990;48.746;9.236;2023-11-21T03:30:28;6.80;99.90
5930;DHT22;2990;48.746;9.236;2023-11-21T03:32:54;6.80;99.90
5930;DHT22;2990;48.746;9.236;2023-11-21T03:35:19;6.80;99.90
5930;DHT22;2990;48.746;9.236;2023-11-21T03:37:46;6.80;99.90
5930;DHT22;2990;48.746;9.236;2023-11-21T03:40:12;6.80;99.90
5930;DHT22;2990;48.746;9.236;2023-11-21T03:42:38;6.80;99.90
5930;DHT22;2990;48.746;9.236;2023-11-21T03:45:05;6.80;99.90
5930;DHT22;2990;48.746;9.236;2023-11-21T03:47:31;6.80;99.90
5930;DHT22;2990;48.746;9.236;2023-11-21T03:49:56;6.80;99.90
5930;DHT22;2990;48.746;9.236;2023-11-21T03:52:22;6.80;99.90
5930;DHT22;2990;48.746;9.236;2023-11-21T03:54:47;6.80;99.90
5930;DHT22;2990;48.746;9.236;2023-11-21T03:57:13;6.80;99.90
5930;DHT22;2990;48.746;9.236;2023-11-21T03:59:42;6.80;99.90
5930;DHT22;2990;48.746;9.236;2023-11-21T04:02:08;6.80;99.90
5930;DHT22;2990;48.746;9.236;2023-11-21T04:04:34;6.80;99.90
5930;DHT22;2990;48.746;9.236;2023-11-21T04:06:59;6.70;99.90
5930;DHT22;2990;48.746;9.236;2023-11-21T04:09:25;6.70;99.90
5930;DHT22;2990;48.746;9.236;2023-11-21T04:11:52;6.70;99.90
5930;DHT22;2990;48.746;9.236;2023-11-21T04:14:18;6.70;99.90
5930;DHT22;2990;48.746;9.236;2023-11-21T04:16:43;6.70;99.90
5930;DHT22;2990;48.746;9.236;2023-11-21T04:19:09;6.70;99.90
5930;DHT22;2990;48.746;9.236;2023-11-21T04:21:38;6.70;99.90
5930;DHT22;2990;48.746;9.236;2023-11-21T04:24:04;6.70;99.90
5930;DHT22;2990;48.746;9.236;2023-11-21T04:26:30;6.70;99.90
5930;DHT22;2990;48.746;9.236;2023-11-21T04:28:56;6.70;99.90
5930;DHT22;2990;48.746;9.236;2023-11-21T04:31:21;6.70;99.90
5930;DHT22;2990;48.746;9.236;2023-11-21T04:33:47;6.70;99.90
5930;DHT22;2990;48.746;9.236;2023-11-21T04:36:12;6.70;99.90
5930;DHT22;2990;48.746;9.236;2023-11-21T04:38:38;6.60;99.90
5930;DHT22;2990;48.746;9.236;2023-11-21T04:41:04;6.70;99.90
5930;DHT22;2990;48.746;9.236;2023-11-21T04:43:29;6.70;99.90
5930;DHT22;2990;48.746;9.236;2023-11-21T04:45:55;6.60;99.90
5930;DHT22;2990;48.746;9.236;2023-11-21T04:48:21;6.70;99.90
5930;DHT22;2990;48.746;9.236;2023-11-21T04:50:46;6.60;99.90
5930;DHT22;2990;48.746;9.236;2023-11-21T04:53:12;6.60;99.90
5930;DHT22;2990;48.746;9.236;2023-11-21T04:55:40;6.60;99.90
5930;DHT22;2990;48.746;9.236;2023-11-21T04:58:07;6.60;99.90
5930;DHT22;2990;48.746;9.236;2023-11-21T05:00:33;6.60;99.90
5930;DHT22;2990;48.746;9.236;2023-11-21T05:02:59;6.50;99.90
5930;DHT22;2990;48.746;9.236;2023-11-21T05:05:26;6.60;99.90
5930;DHT22;2990;48.746;9.236;2023-11-21T05:07:52;6.50;99.90
5930;DHT22;2990;48.746;9.236;2023-11-21T05:10:19;6.50;99.90
5930;DHT22;2990;48.746;9.236;2023-11-21T05:12:44;6.50;99.90
5930;DHT22;2990;48.746;9.236;2023-11-21T05:15:13;6.50;99.90
5930;DHT22;2990;48.746;9.236;2023-11-21T05:17:40;6.50;99.90
5930;DHT22;2990;48.746;9.236;2023-11-21T05:20:10;6.50;99.90
5930;DHT22;2990;48.746;9.236;2023-11-21T05:22:37;6.50;99.90
5930;DHT22;2990;48.746;9.236;2023-11-21T05:25:03;6.50;99.90
5930;DHT22;2990;48.746;9.236;2023-11-21T05:27:29;6.50;99.90
5930;DHT22;2990;48.746;9.236;2023-11-21T05:29:58;6.50;99.90
5930;DHT22;2990;48.746;9.236;2023-11-21T05:32:25;6.60;99.90
5930;DHT22;2990;48.746;9.236;2023-11-21T05:34:51;6.60;99.90
5930;DHT22;2990;48.746;9.236;2023-11-21T05:37:17;6.60;99.90
5930;DHT22;2990;48.746;9.236;2023-11-21T05:39:43;6.60;99.90
5930;DHT22;2990;48.746;9.236;2023-11-21T05:42:08;6.60;99.90
5930;DHT22;2990;48.746;9.236;2023-11-21T05:44:36;6.60;99.90
5930;DHT22;2990;48.746;9.236;2023-11-21T05:47:02;6.60;99.90
5930;DHT22;2990;48.746;9.236;2023-11-21T05:49:29;6.60;99.90
5930;DHT22;2990;48.746;9.236;2023-11-21T05:51:55;6.60;99.90
5930;DHT22;2990;48.746;9.236;2023-11-21T05:54:21;6.60;99.90
5930;DHT22;2990;48.746;9.236;2023-11-21T05:56:47;6.60;99.90
5930;DHT22;2990;48.746;9.236;2023-11-21T05:59:13;6.60;99.90
5930;DHT22;2990;48.746;9.236;2023-11-21T06:01:38;6.60;99.90
5930;DHT22;2990;48.746;9.236;2023-11-21T06:04:05;6.50;99.90
5930;DHT22;2990;48.746;9.236;2023-11-21T06:06:30;6.50;99.90
5930;DHT22;2990;48.746;9.236;2023-11-21T06:08:57;6.50;99.90
5930;DHT22;2990;48.746;9.236;2023-11-21T06:11:22;6.50;99.90
5930;DHT22;2990;48.746;9.236;2023-11-21T06:13:48;6.50;99.90
5930;DHT22;2990;48.746;9.236;2023-11-21T06:16:15;6.50;99.90
5930;DHT22;2990;48.746;9.236;2023-11-21T06:18:42;6.50;99.90
5930;DHT22;2990;48.746;9.236;2023-11-21T06:21:12;6.50;99.90
5930;DHT22;2990;48.746;9.236;2023-11-21T06:23:37;6.50;99.90
5930;DHT22;2990;48.746;9.236;2023-11-21T06:26:03;6.50;99.90
5930;DHT22;2990;48.746;9.236;2023-11-21T06:28:30;6.50;99.90
5930;DHT22;2990;48.746;9.236;2023-11-21T06:30:56;6.50;99.90
5930;DHT22;2990;48.746;9.236;2023-11-21T06:33:23;6.50;99.90
5930;DHT22;2990;48.746;9.236;2023-11-21T06:35:49;6.50;99.90
5930;DHT22;2990;48.746;9.236;2023-11-21T06:38:15;6.50;99.90
5930;DHT22;2990;48.746;9.236;2023-11-21T06:40:40;6.50;99.90
5930;DHT22;2990;48.746;9.236;2023-11-21T06:43:06;6.60;99.90
5930;DHT22;2990;48.746;9.236;2023-11-21T06:45:33;6.60;99.90
5930;DHT22;2990;48.746;9.236;2023-11-21T06:47:59;6.60;99.90
5930;DHT22;2990;48.746;9.236;2023-11-21T06:50:25;6.60;99.90
5930;DHT22;2990;48.746;9.236;2023-11-21T06:52:50;6.60;99.90
5930;DHT22;2990;48.746;9.236;2023-11-21T06:55:16;6.60;99.90
5930;DHT22;2990;48.746;9.236;2023-11-21T06:57:41;6.60;99.90
5930;DHT22;2990;48.746;9.236;2023-11-21T07:00:08;6.60;99.90
5930;DHT22;2990;48.746;9.236;2023-11-21T07:02:34;6.60;99.90
5930;DHT22;2990;48.746;9.236;2023-11-21T07:05:00;6.60;99.90
5930;DHT22;2990;48.746;9.236;2023-11-21T07:07:28;6.60;99.90
5930;DHT22;2990;48.746;9.236;2023-11-21T07:09:54;6.60;99.90
5930;DHT22;2990;48.746;9.236;2023-11-21T07:12:19;6.60;99.90
5930;DHT22;2990;48.746;9.236;2023-11-21T07:14:45;6.70;99.90
5930;DHT22;2990;48.746;9.236;2023-11-21T07:17:11;6.70;99.90
5930;DHT22;2990;48.746;9.236;2023-11-21T07:19:38;6.70;99.90
5930;DHT22;2990;48.746;9.236;2023-11-21T07:22:03;6.70;99.90
5930;DHT22;2990;48.746;9.236;2023-11-21T07:24:31;6.70;99.90
5930;DHT22;2990;48.746;9.236;2023-11-21T07:26:57;6.80;99.90
5930;DHT22;2990;48.746;9.236;2023-11-21T07:29:26;6.80;99.90
5930;DHT22;2990;48.746;9.236;2023-11-21T07:31:52;6.80;99.90
5930;DHT22;2990;48.746;9.236;2023-11-21T07:34:19;6.80;99.90
5930;DHT22;2990;48.746;9.236;2023-11-21T07:36:44;6.80;99.90
5930;DHT22;2990;48.746;9.236;2023-11-21T07:39:10;6.90;99.90
5930;DHT22;2990;48.746;9.236;2023-11-21T07:41:36;6.90;99.90
5930;DHT22;2990;48.746;9.236;2023-11-21T07:44:03;6.90;99.90
5930;DHT22;2990;48.746;9.236;2023-11-21T07:46:29;6.90;99.90
5930;DHT22;2990;48.746;9.236;2023-11-21T07:48:54;6.90;99.90
5930;DHT22;2990;48.746;9.236;2023-11-21T07:51:20;6.90;99.90
5930;DHT22;2990;48.746;9.236;2023-11-21T07:53:46;7.00;99.90
5930;DHT22;2990;48.746;9.236;2023-11-21T07:56:12;7.00;99.90
5930;DHT22;2990;48.746;9.236;2023-11-21T07:58:38;7.00;99.90
5930;DHT22;2990;48.746;9.236;2023-11-21T08:01:04;7.00;99.90
5930;DHT22;2990;48.746;9.236;2023-11-21T08:03:30;7.00;99.90
5930;DHT22;2990;48.746;9.236;2023-11-21T08:05:57;7.00;99.90
5930;DHT22;2990;48.746;9.236;2023-11-21T08:08:23;7.00;99.90
5930;DHT22;2990;48.746;9.236;2023-11-21T08:10:49;7.00;99.90
5930;DHT22;2990;48.746;9.236;2023-11-21T08:13:22;7.00;99.90
5930;DHT22;2990;48.746;9.236;2023-11-21T08:15:47;7.00;99.90
5930;DHT22;2990;48.746;9.236;2023-11-21T08:18:13;7.00;99.90
5930;DHT22;2990;48.746;9.236;2023-11-21T08:20:40;7.10;99.90
5930;DHT22;2990;48.746;9.236;2023-11-21T08:23:05;7.10;99.90
5930;DHT22;2990;48.746;9.236;2023-11-21T08:25:32;7.10;99.90
5930;DHT22;2990;48.746;9.236;2023-11-21T08:27:58;7.10;99.90
5930;DHT22;2990;48.746;9.236;2023-11-21T08:30:24;7.10;99.90
5930;DHT22;2990;48.746;9.236;2023-11-21T08:32:50;7.10;99.90
5930;DHT22;2990;48.746;9.236;2023-11-21T08:35:17;7.10;99.90
5930;DHT22;2990;48.746;9.236;2023-11-21T08:37:43;7.10;99.90
5930;DHT22;2990;48.746;9.236;2023-11-21T08:40:09;7.10;99.90
5930;DHT22;2990;48.746;9.236;2023-11-21T08:42:35;7.10;99.90
5930;DHT22;2990;48.746;9.236;2023-11-21T08:45:01;7.10;99.90
5930;DHT22;2990;48.746;9.236;2023-11-21T08:47:27;7.10;99.90
5930;DHT22;2990;48.746;9.236;2023-11-21T08:49:53;7.20;99.90
5930;DHT22;2990;48.746;9.236;2023-11-21T08:52:19;7.20;99.90
5930;DHT22;2990;48.746;9.236;2023-11-21T08:54:51;7.20;99.90
5930;DHT22;2990;48.746;9.236;2023-11-21T08:57:22;7.30;99.90
5930;DHT22;2990;48.746;9.236;2023-11-21T08:59:48;7.30;99.90
5930;DHT22;2990;48.746;9.236;2023-11-21T09:02:13;7.40;99.90
5930;DHT22;2990;48.746;9.236;2023-11-21T09:04:39;7.50;99.90
5930;DHT22;2990;48.746;9.236;2023-11-21T09:07:04;7.50;99.90
5930;DHT22;2990;48.746;9.236;2023-11-21T09:09:30;7.60;99.90
5930;DHT22;2990;48.746;9.236;2023-11-21T09:11:56;7.60;99.90
5930;DHT22;2990;48.746;9.236;2023-11-21T09:14:21;7.70;99.90
5930;DHT22;2990;48.746;9.236;2023-11-21T09:16:47;7.70;99.90
5930;DHT22;2990;48.746;9.236;2023-11-21T09:19:12;7.80;99.90
5930;DHT22;2990;48.746;9.236;2023-11-21T09:21:39;7.80;99.90
5930;DHT22;2990;48.746;9.236;2023-11-21T09:24:05;7.90;99.90
5930;DHT22;2990;48.746;9.236;2023-11-21T09:26:31;8.10;99.90
5930;DHT22;2990;48.746;9.236;2023-11-21T09:28:56;8.10;99.90
5930;DHT22;2990;48.746;9.236;2023-11-21T09:31:22;8.30;99.90
5930;DHT22;2990;48.746;9.236;2023-11-21T09:33:49;8.70;99.90
5930;DHT22;2990;48.746;9.236;2023-11-21T09:36:14;9.10;99.90
5930;DHT22;2990;48.746;9.236;2023-11-21T09:38:40;9.30;99.90
5930;DHT22;2990;48.746;9.236;2023-11-21T09:41:15;9.40;99.90
5930;DHT22;2990;48.746;9.236;2023-11-21T09:43:43;9.50;99.90
5930;DHT22;2990;48.746;9.236;2023-11-21T09:46:12;9.40;99.90
5930;DHT22;2990;48.746;9.236;2023-11-21T09:48:46;9.30;99.90
5930;DHT22;2990;48.746;9.236;2023-11-21T09:51:14;9.20;99.90
5930;DHT22;2990;48.746;9.236;2023-11-21T09:53:43;9.20;99.80
5930;DHT22;2990;48.746;9.236;2023-11-21T09:56:10;9.10;97.40
5930;DHT22;2990;48.746;9.236;2023-11-21T09:58:36;9.00;86.90
5930;DHT22;2990;48.746;9.236;2023-11-21T10:01:02;8.90;98.10
5930;DHT22;2990;48.746;9.236;2023-11-21T10:03:28;8.90;99.90
5930;DHT22;2990;48.746;9.236;2023-11-21T10:05:56;8.80;99.90
5930;DHT22;2990;48.746;9.236;2023-11-21T10:08:27;8.70;99.90
5930;DHT22;2990;48.746;9.236;2023-11-21T10:10:54;8.60;99.90
5930;DHT22;2990;48.746;9.236;2023-11-21T10:13:21;8.60;99.90
5930;DHT22;2990;48.746;9.236;2023-11-21T10:15:51;8.60;99.90
5930;DHT22;2990;48.746;9.236;2023-11-21T10:18:17;8.60;99.90
5930;DHT22;2990;48.746;9.236;2023-11-21T10:20:43;8.50;99.90
5930;DHT22;2990;48.746;9.236;2023-11-21T10:23:09;8.50;99.90
5930;DHT22;2990;48.746;9.236;2023-11-21T10:25:37;8.50;99.90
5930;DHT22;2990;48.746;9.236;2023-11-21T10:28:04;8.40;99.90
5930;DHT22;2990;48.746;9.236;2023-11-21T10:30:36;8.30;99.90
5930;DHT22;2990;48.746;9.236;2023-11-21T10:33:07;8.30;99.90
5930;DHT22;2990;48.746;9.236;2023-11-21T10:35:45;8.30;99.90
5930;DHT22;2990;48.746;9.236;2023-11-21T10:38:12;8.30;99.90
5930;DHT22;2990;48.746;9.236;2023-11-21T10:40:43;8.30;99.90
5930;DHT22;2990;48.746;9.236;2023-11-21T10:43:10;8.30;99.90
5930;DHT22;2990;48.746;9.236;2023-11-21T10:45:39;8.30;99.90
5930;DHT22;2990;48.746;9.236;2023-11-21T10:48:06;8.20;99.90
5930;DHT22;2990;48.746;9.236;2023-11-21T10:50:34;8.20;99.90
5930;DHT22;2990;48.746;9.236;2023-11-21T10:53:02;8.20;99.90
5930;DHT22;2990;48.746;9.236;2023-11-21T10:55:29;8.00;99.90
5930;DHT22;2990;48.746;9.236;2023-11-21T10:58:01;8.00;99.90
5930;DHT22;2990;48.746;9.236;2023-11-21T11:00:28;8.00;99.90
5930;DHT22;2990;48.746;9.236;2023-11-21T11:02:55;7.90;99.90
5930;DHT22;2990;48.746;9.236;2023-11-21T11:05:23;7.90;99.90
5930;DHT22;2990;48.746;9.236;2023-11-21T11:10:25;7.90;99.90
5930;DHT22;2990;48.746;9.236;2023-11-21T11:12:51;7.80;99.90
5930;DHT22;2990;48.746;9.236;2023-11-21T11:15:18;7.90;99.90
5930;DHT22;2990;48.746;9.236;2023-11-21T11:17:45;7.90;99.90
5930;DHT22;2990;48.746;9.236;2023-11-21T11:20:13;7.80;99.90
5930;DHT22;2990;48.746;9.236;2023-11-21T11:22:55;7.80;99.90
5930;DHT22;2990;48.746;9.236;2023-11-21T11:25:47;7.80;99.90
5930;DHT22;2990;48.746;9.236;2023-11-21T11:28:19;7.90;99.90
5930;DHT22;2990;48.746;9.236;2023-11-21T11:36:46;8.00;99.90
5930;DHT22;2990;48.746;9.236;2023-11-21T11:39:30;8.10;99.90
5930;DHT22;2990;48.746;9.236;2023-11-21T11:42:02;8.20;99.90
5930;DHT22;2990;48.746;9.236;2023-11-21T11:47:23;8.30;99.90
5930;DHT22;2990;48.746;9.236;2023-11-21T11:52:53;8.40;99.90
5930;DHT22;2990;48.746;9.236;2023-11-21T11:55:24;8.40;99.90
5930;DHT22;2990;48.746;9.236;2023-11-21T11:57:54;8.40;99.90
5930;DHT22;2990;48.746;9.236;2023-11-21T12:02:56;8.30;99.90
5930;DHT22;2990;48.746;9.236;2023-11-21T12:05:23;8.30;99.90
5930;DHT22;2990;48.746;9.236;2023-11-21T12:07:56;8.30;99.90
5930;DHT22;2990;48.746;9.236;2023-11-21T12:10:24;8.20;99.90
5930;DHT22;2990;48.746;9.236;2023-11-21T12:15:19;8.20;99.90
5930;DHT22;2990;48.746;9.236;2023-11-21T12:17:45;8.20;99.90
5930;DHT22;2990;48.746;9.236;2023-11-21T12:20:21;8.20;99.90
5930;DHT22;2990;48.746;9.236;2023-11-21T12:22:55;8.20;99.90
5930;DHT22;2990;48.746;9.236;2023-11-21T12:25:25;8.20;99.90
5930;DHT22;2990;48.746;9.236;2023-11-21T12:27:54;8.20;99.90
5930;DHT22;2990;48.746;9.236;2023-11-21T12:30:22;8.20;99.90
5930;DHT22;2990;48.746;9.236;2023-11-21T12:32:52;8.30;99.90
5930;DHT22;2990;48.746;9.236;2023-11-21T12:35:19;8.20;99.90
5930;DHT22;2990;48.746;9.236;2023-11-21T12:37:45;8.20;99.90
5930;DHT22;2990;48.746;9.236;2023-11-21T12:40:12;8.20;99.90
5930;DHT22;2990;48.746;9.236;2023-11-21T12:42:48;8.20;99.90
5930;DHT22;2990;48.746;9.236;2023-11-21T12:50:12;8.30;99.90
5930;DHT22;2990;48.746;9.236;2023-11-21T12:52:45;8.30;99.90
5930;DHT22;2990;48.746;9.236;2023-11-21T12:55:15;8.40;99.90
5930;DHT22;2990;48.746;9.236;2023-11-21T12:57:44;8.40;99.90
5930;DHT22;2990;48.746;9.236;2023-11-21T13:00:12;8.40;99.90
5930;DHT22;2990;48.746;9.236;2023-11-21T13:02:51;8.40;99.90
5930;DHT22;2990;48.746;9.236;2023-11-21T13:05:39;8.50;99.90
5930;DHT22;2990;48.746;9.236;2023-11-21T13:08:08;8.30;99.90
5930;DHT22;2990;48.746;9.236;2023-11-21T13:10:39;8.30;99.90
5930;DHT22;2990;48.746;9.236;2023-11-21T13:13:07;8.20;99.90
5930;DHT22;2990;48.746;9.236;2023-11-21T13:15:47;8.20;99.90
5930;DHT22;2990;48.746;9.236;2023-11-21T13:18:13;8.30;99.90
5930;DHT22;2990;48.746;9.236;2023-11-21T13:20:40;8.40;99.90
5930;DHT22;2990;48.746;9.236;2023-11-21T13:23:10;8.50;99.90
5930;DHT22;2990;48.746;9.236;2023-11-21T13:25:42;8.60;99.90
5930;DHT22;2990;48.746;9.236;2023-11-21T13:28:08;8.70;99.90
5930;DHT22;2990;48.746;9.236;2023-11-21T13:30:37;8.70;99.90
5930;DHT22;2990;48.746;9.236;2023-11-21T13:33:05;8.70;99.90
5930;DHT22;2990;48.746;9.236;2023-11-21T13:35:36;8.70;99.90
5930;DHT22;2990;48.746;9.236;2023-11-21T13:38:08;8.80;99.90
5930;DHT22;2990;48.746;9.236;2023-11-21T13:40:35;8.70;99.90
5930;DHT22;2990;48.746;9.236;2023-11-21T13:43:08;8.70;99.90
5930;DHT22;2990;48.746;9.236;2023-11-21T13:45:39;8.70;99.90
5930;DHT22;2990;48.746;9.236;2023-11-21T13:48:05;8.60;99.90
5930;DHT22;2990;48.746;9.236;2023-11-21T13:50:38;8.50;99.90
5930;DHT22;2990;48.746;9.236;2023-11-21T13:53:04;8.30;99.90
5930;DHT22;2990;48.746;9.236;2023-11-21T13:55:44;8.20;99.90
5930;DHT22;2990;48.746;9.236;2023-11-21T13:58:10;8.10;99.90
5930;DHT22;2990;48.746;9.236;2023-11-21T14:00:42;8.00;99.90
5930;DHT22;2990;48.746;9.236;2023-11-21T14:03:11;7.90;99.90
5930;DHT22;2990;48.746;9.236;2023-11-21T14:05:45;7.90;99.90
5930;DHT22;2990;48.746;9.236;2023-11-21T14:08:13;7.90;99.90
5930;DHT22;2990;48.746;9.236;2023-11-21T14:10:42;7.80;99.90
5930;DHT22;2990;48.746;9.236;2023-11-21T14:13:18;7.80;99.90
5930;DHT22;2990;48.746;9.236;2023-11-21T14:15:45;7.70;99.90
5930;DHT22;2990;48.746;9.236;2023-11-21T14:18:12;7.70;99.90
5930;DHT22;2990;48.746;9.236;2023-11-21T14:20:43;7.70;99.90
5930;DHT22;2990;48.746;9.236;2023-11-21T14:23:10;7.70;99.90
5930;DHT22;2990;48.746;9.236;2023-11-21T14:25:36;7.70;99.90
5930;DHT22;2990;48.746;9.236;2023-11-21T14:28:03;7.60;99.90
5930;DHT22;2990;48.746;9.236;2023-11-21T14:30:29;7.60;99.90
5930;DHT22;2990;48.746;9.236;2023-11-21T14:32:58;7.60;99.90
5930;DHT22;2990;48.746;9.236;2023-11-21T14:35:24;7.60;99.90
5930;DHT22;2990;48.746;9.236;2023-11-21T14:37:50;7.50;99.90
5930;DHT22;2990;48.746;9.236;2023-11-21T14:40:16;7.50;99.90
5930;DHT22;2990;48.746;9.236;2023-11-21T14:42:42;7.50;99.90
5930;DHT22;2990;48.746;9.236;2023-11-21T14:45:09;7.50;99.90
5930;DHT22;2990;48.746;9.236;2023-11-21T14:47:37;7.50;99.90
5930;DHT22;2990;48.746;9.236;2023-11-21T14:50:03;7.50;99.90
5930;DHT22;2990;48.746;9.236;2023-11-21T14:52:49;7.50;99.90
5930;DHT22;2990;48.746;9.236;2023-11-21T14:55:25;7.50;99.90
5930;DHT22;2990;48.746;9.236;2023-11-21T14:57:50;7.50;99.90
5930;DHT22;2990;48.746;9.236;2023-11-21T15:00:17;7.50;99.90
5930;DHT22;2990;48.746;9.236;2023-11-21T15:03:02;7.50;99.90
5930;DHT22;2990;48.746;9.236;2023-11-21T15:05:28;7.50;99.90
5930;DHT22;2990;48.746;9.236;2023-11-21T15:07:54;7.50;99.90
5930;DHT22;2990;48.746;9.236;2023-11-21T15:10:23;7.50;99.90
5930;DHT22;2990;48.746;9.236;2023-11-21T15:13:03;7.50;99.90
5930;DHT22;2990;48.746;9.236;2023-11-21T15:15:29;7.50;99.90
5930;DHT22;2990;48.746;9.236;2023-11-21T15:17:57;7.50;99.90
5930;DHT22;2990;48.746;9.236;2023-11-21T15:20:22;7.40;99.90
5930;DHT22;2990;48.746;9.236;2023-11-21T15:22:48;7.40;99.90
5930;DHT22;2990;48.746;9.236;2023-11-21T15:25:13;7.40;99.90
5930;DHT22;2990;48.746;9.236;2023-11-21T15:27:39;7.40;99.90
5930;DHT22;2990;48.746;9.236;2023-11-21T15:30:07;7.40;99.90
5930;DHT22;2990;48.746;9.236;2023-11-21T15:32:32;7.40;99.90
5930;DHT22;2990;48.746;9.236;2023-11-21T15:34:58;7.40;99.90
5930;DHT22;2990;48.746;9.236;2023-11-21T15:37:23;7.40;99.90
5930;DHT22;2990;48.746;9.236;2023-11-21T15:39:51;7.40;99.90
5930;DHT22;2990;48.746;9.236;2023-11-21T15:42:17;7.40;99.90
5930;DHT22;2990;48.746;9.236;2023-11-21T15:44:42;7.50;99.90
5930;DHT22;2990;48.746;9.236;2023-11-21T15:47:08;7.50;99.90
5930;DHT22;2990;48.746;9.236;2023-11-21T15:49:34;7.50;99.90
5930;DHT22;2990;48.746;9.236;2023-11-21T15:52:02;7.50;99.90
5930;DHT22;2990;48.746;9.236;2023-11-21T15:54:29;7.50;99.90
5930;DHT22;2990;48.746;9.236;2023-11-21T15:56:55;7.40;99.90
5930;DHT22;2990;48.746;9.236;2023-11-21T15:59:23;7.40;99.90
5930;DHT22;2990;48.746;9.236;2023-11-21T16:01:52;7.50;99.90
5930;DHT22;2990;48.746;9.236;2023-11-21T16:04:18;7.50;99.90
5930;DHT22;2990;48.746;9.236;2023-11-21T16:06:47;7.50;99.90
5930;DHT22;2990;48.746;9.236;2023-11-21T16:09:13;7.40;99.90
5930;DHT22;2990;48.746;9.236;2023-11-21T16:11:51;7.40;99.90
5930;DHT22;2990;48.746;9.236;2023-11-21T16:14:19;7.40;99.90
5930;DHT22;2990;48.746;9.236;2023-11-21T16:16:50;7.30;99.90
5930;DHT22;2990;48.746;9.236;2023-11-21T16:19:16;7.30;99.90
5930;DHT22;2990;48.746;9.236;2023-11-21T16:21:42;7.30;99.90
5930;DHT22;2990;48.746;9.236;2023-11-21T16:24:07;7.30;99.90
5930;DHT22;2990;48.746;9.236;2023-11-21T16:26:33;7.30;99.90
5930;DHT22;2990;48.746;9.236;2023-11-21T16:29:01;7.30;99.90
5930;DHT22;2990;48.746;9.236;2023-11-21T16:31:27;7.30;99.90
5930;DHT22;2990;48.746;9.236;2023-11-21T16:33:53;7.30;99.90
5930;DHT22;2990;48.746;9.236;2023-11-21T16:36:19;7.30;99.90
5930;DHT22;2990;48.746;9.236;2023-11-21T16:38:45;7.30;99.90
5930;DHT22;2990;48.746;9.236;2023-11-21T16:41:10;7.20;99.90